Time;durP1;ratioP1;P1;durP2;ratioP2;P2;SDS_P1;SDS_P2;PMS_P1;PMS_P2;Temp;Humidity;BMP_temperature;BMP_pressure;BME280_temperature;BME280_humidity;BME280_pressure;Samples;Min_cycle;Max_cycle;Signal;HPM_P1;HPM_P2
2023/07/28 00:00:20;;;;;;;2.97;1.43;;;;;;;;;;5050380;28;20021;-71
2023/07/28 00:02:45;;;;;;;3.28;2.15;;;;;;;;;;5049546;28;20332;-72
2023/07/28 00:05:10;;;;;;;6.85;1.00;;;;;;;;;;5046921;28;20035;-72
2023/07/28 00:07:36;;;;;;;1.90;1.10;;;;;;;;;;5049414;28;20017;-72
2023/07/28 00:10:01;;;;;;;4.32;1.10;;;;;;;;;;5048516;28;20264;-72
2023/07/28 00:12:27;;;;;;;7.45;1.50;;;;;;;;;;5031650;28;20017;-72
2023/07/28 00:14:52;;;;;;;2.00;1.20;;;;;;;;;;5045063;28;20370;-72
2023/07/28 00:17:17;;;;;;;2.90;1.03;;;;;;;;;;5046318;28;20025;-72
2023/07/28 00:19:42;;;;;;;3.40;1.40;;;;;;;;;;5047532;28;20064;-72
2023/07/28 00:22:07;;;;;;;2.10;1.10;;;;;;;;;;5048570;28;20025;-72
2023/07/28 00:24:32;;;;;;;5.80;1.37;;;;;;;;;;5050699;28;20036;-72
2023/07/28 00:26:58;;;;;;;3.17;1.48;;;;;;;;;;5049804;28;20350;-72
2023/07/28 00:29:23;;;;;;;3.53;1.60;;;;;;;;;;5042086;28;20036;-72
2023/07/28 00:31:48;;;;;;;4.75;1.30;;;;;;;;;;5051845;28;20028;-72
2023/07/28 00:34:13;;;;;;;4.23;1.70;;;;;;;;;;5051421;28;20024;-73
2023/07/28 00:36:38;;;;;;;3.07;1.20;;;;;;;;;;5049993;28;20283;-72
2023/07/28 00:39:04;;;;;;;3.88;1.40;;;;;;;;;;5047342;28;20267;-72
2023/07/28 00:41:29;;;;;;;3.87;1.37;;;;;;;;;;5049270;28;20017;-73
2023/07/28 00:43:54;;;;;;;3.80;1.33;;;;;;;;;;5047554;28;20278;-73
2023/07/28 00:46:19;;;;;;;3.03;0.73;;;;;;;;;;5049379;28;20271;-72
2023/07/28 00:48:44;;;;;;;3.07;1.30;;;;;;;;;;5048157;28;20275;-72
2023/07/28 00:51:10;;;;;;;2.90;1.30;;;;;;;;;;5049754;28;20362;-72
2023/07/28 00:53:35;;;;;;;4.95;1.50;;;;;;;;;;5050153;28;20063;-72
2023/07/28 00:56:00;;;;;;;6.18;1.55;;;;;;;;;;5049137;28;20039;-72
2023/07/28 00:58:26;;;;;;;3.40;1.27;;;;;;;;;;5049109;28;20044;-72
2023/07/28 01:00:51;;;;;;;2.80;1.55;;;;;;;;;;5050795;28;20048;-72
2023/07/28 01:03:17;;;;;;;4.00;1.67;;;;;;;;;;5050557;28;20025;-71
2023/07/28 01:05:45;;;;;;;4.63;1.85;;;;;;;;;;5051387;28;20280;-72
2023/07/28 01:08:16;;;;;;;8.15;2.17;;;;;;;;;;5049895;28;20096;-72
2023/07/28 01:10:42;;;;;;;6.03;1.67;;;;;;;;;;5051196;28;20020;-72
2023/07/28 01:13:07;;;;;;;8.43;1.42;;;;;;;;;;5051026;28;20025;-72
2023/07/28 01:15:32;;;;;;;2.33;1.00;;;;;;;;;;5050964;28;20112;-72
2023/07/28 01:17:57;;;;;;;5.87;1.47;;;;;;;;;;5046052;28;20267;-72
2023/07/28 01:20:27;;;;;;;3.65;1.38;;;;;;;;;;5009173;28;1076474;-72
2023/07/28 01:23:09;;;;;;;6.75;1.50;;;;;;;;;;5051427;28;20036;-73
2023/07/28 01:25:57;;;;;;;7.32;1.77;;;;;;;;;;5052404;28;20024;-72
2023/07/28 01:28:23;;;;;;;4.90;1.38;;;;;;;;;;5052530;28;20013;-72
2023/07/28 01:30:48;;;;;;;4.32;1.50;;;;;;;;;;5050856;28;20025;-72
2023/07/28 01:33:13;;;;;;;4.73;1.27;;;;;;;;;;5051994;28;20470;-73
2023/07/28 01:35:38;;;;;;;5.90;1.55;;;;;;;;;;5052475;28;20024;-72
2023/07/28 01:38:04;;;;;;;3.80;1.38;;;;;;;;;;5047568;28;20021;-72
2023/07/28 01:40:29;;;;;;;6.10;1.25;;;;;;;;;;5051163;28;20021;-72
2023/07/28 01:42:54;;;;;;;3.72;1.30;;;;;;;;;;5050564;28;20103;-72
2023/07/28 01:45:19;;;;;;;5.27;1.50;;;;;;;;;;5052200;28;20159;-72
2023/07/28 01:47:45;;;;;;;7.25;1.67;;;;;;;;;;5052133;28;20259;-72
2023/07/28 01:50:10;;;;;;;4.30;1.17;;;;;;;;;;5052533;28;20025;-73
2023/07/28 01:52:35;;;;;;;3.43;1.27;;;;;;;;;;5050688;28;20334;-71
2023/07/28 01:55:00;;;;;;;5.53;1.33;;;;;;;;;;5051377;28;20687;-72
2023/07/28 01:57:27;;;;;;;6.73;1.10;;;;;;;;;;5051459;28;20079;-73
2023/07/28 01:59:52;;;;;;;4.13;1.30;;;;;;;;;;5052460;28;20037;-71
2023/07/28 02:02:17;;;;;;;2.15;1.08;;;;;;;;;;5047335;28;20033;-72
2023/07/28 02:04:43;;;;;;;4.03;1.40;;;;;;;;;;5052151;28;20068;-71
2023/07/28 02:07:08;;;;;;;4.40;1.90;;;;;;;;;;5051289;28;20040;-73
2023/07/28 02:09:33;;;;;;;3.43;1.20;;;;;;;;;;5048801;28;20274;-72
2023/07/28 02:11:58;;;;;;;6.03;1.23;;;;;;;;;;5049126;28;20032;-72
2023/07/28 02:14:23;;;;;;;6.47;1.67;;;;;;;;;;5050482;28;20052;-72
2023/07/28 02:16:48;;;;;;;3.60;1.43;;;;;;;;;;5044866;28;20287;-72
2023/07/28 02:19:14;;;;;;;6.20;1.10;;;;;;;;;;5050424;28;20090;-72
2023/07/28 02:21:39;;;;;;;5.10;1.00;;;;;;;;;;5049096;28;20029;-71
2023/07/28 02:24:04;;;;;;;2.03;1.00;;;;;;;;;;5051745;28;20279;-72
2023/07/28 02:26:29;;;;;;;2.13;0.90;;;;;;;;;;5049925;28;20455;-72
2023/07/28 02:28:54;;;;;;;5.17;1.50;;;;;;;;;;5053941;28;20021;-72
2023/07/28 02:31:19;;;;;;;3.10;1.23;;;;;;;;;;5050064;28;20691;-71
2023/07/28 02:33:45;;;;;;;5.70;2.00;;;;;;;;;;5046817;28;20284;-73
2023/07/28 02:36:10;;;;;;;2.50;1.00;;;;;;;;;;5049928;28;20017;-71
2023/07/28 02:38:35;;;;;;;8.80;0.95;;;;;;;;;;5049823;28;20835;-72
2023/07/28 02:41:00;;;;;;;1.58;0.75;;;;;;;;;;5050777;28;20358;-72
2023/07/28 02:43:26;;;;;;;1.90;0.63;;;;;;;;;;5032723;28;20386;-72
2023/07/28 02:45:57;;;;;;;1.67;0.90;;;;;;;;;;5050522;28;20397;-72
2023/07/28 02:48:22;;;;;;;2.17;0.85;;;;;;;;;;5050453;28;20280;-72
2023/07/28 02:50:49;;;;;;;3.60;0.95;;;;;;;;;;5050583;28;20017;-73
2023/07/28 02:53:14;;;;;;;2.53;1.00;;;;;;;;;;5050418;28;20025;-72
2023/07/28 02:55:43;;;;;;;1.48;0.90;;;;;;;;;;5050912;28;20017;-73
2023/07/28 02:58:08;;;;;;;1.23;0.63;;;;;;;;;;5050393;28;20021;-73
2023/07/28 03:00:33;;;;;;;2.05;1.00;;;;;;;;;;5050149;28;20536;-72
2023/07/28 03:02:59;;;;;;;3.57;1.50;;;;;;;;;;5049463;28;20138;-73
2023/07/28 03:05:24;;;;;;;4.57;1.10;;;;;;;;;;5048166;28;20279;-73
2023/07/28 03:07:49;;;;;;;2.67;1.40;;;;;;;;;;5049249;28;20268;-72
2023/07/28 03:10:16;;;;;;;1.80;1.20;;;;;;;;;;5049751;28;20274;-73
2023/07/28 03:12:42;;;;;;;8.90;1.40;;;;;;;;;;5048133;28;20359;-72
2023/07/28 03:15:07;;;;;;;3.30;1.07;;;;;;;;;;5050814;28;20092;-73
2023/07/28 03:17:32;;;;;;;5.13;1.63;;;;;;;;;;5050703;28;20260;-73
2023/07/28 03:19:57;;;;;;;2.23;1.20;;;;;;;;;;5046564;28;20593;-73
2023/07/28 03:22:22;;;;;;;7.00;1.80;;;;;;;;;;5047517;28;20768;-73
2023/07/28 03:24:48;;;;;;;3.17;1.60;;;;;;;;;;5049527;28;20040;-73
2023/07/28 03:27:13;;;;;;;6.50;2.08;;;;;;;;;;5046674;28;20486;-73
2023/07/28 03:29:38;;;;;;;6.43;1.80;;;;;;;;;;5048426;28;20531;-73
2023/07/28 03:32:03;;;;;;;6.70;1.80;;;;;;;;;;5045534;28;20289;-72
2023/07/28 03:34:29;;;;;;;3.22;1.92;;;;;;;;;;5049893;28;20013;-72
2023/07/28 03:36:54;;;;;;;4.78;2.20;;;;;;;;;;5048684;28;20452;-72
2023/07/28 03:39:19;;;;;;;3.93;3.07;;;;;;;;;;5049577;28;20020;-73
2023/07/28 03:41:44;;;;;;;6.63;2.27;;;;;;;;;;5049710;28;20095;-73
2023/07/28 03:44:09;;;;;;;4.60;2.10;;;;;;;;;;5047166;28;20292;-74
2023/07/28 03:46:34;;;;;;;3.65;1.98;;;;;;;;;;5045995;28;20268;-72
2023/07/28 03:49:00;;;;;;;6.63;1.87;;;;;;;;;;5042189;28;20049;-72
2023/07/28 03:51:25;;;;;;;3.60;2.15;;;;;;;;;;5050253;28;20318;-73
2023/07/28 03:53:50;;;;;;;4.43;2.10;;;;;;;;;;5047932;28;20023;-72
2023/07/28 03:56:15;;;;;;;6.03;2.10;;;;;;;;;;5045788;28;20320;-73
2023/07/28 03:58:41;;;;;;;8.50;2.60;;;;;;;;;;5050545;28;20029;-72
2023/07/28 04:01:07;;;;;;;2.42;1.50;;;;;;;;;;5048629;28;20764;-74
2023/07/28 04:03:32;;;;;;;5.43;2.08;;;;;;;;;;5050357;28;20470;-72
2023/07/28 04:05:57;;;;;;;3.60;1.53;;;;;;;;;;5044181;28;20040;-73
2023/07/28 04:08:23;;;;;;;2.53;1.70;;;;;;;;;;5047994;28;20021;-72
2023/07/28 04:10:48;;;;;;;5.00;1.73;;;;;;;;;;5048628;28;20743;-72
2023/07/28 04:13:13;;;;;;;3.77;1.60;;;;;;;;;;5047222;28;20028;-73
2023/07/28 04:15:38;;;;;;;3.27;1.77;;;;;;;;;;5046705;28;20032;-74
2023/07/28 04:18:03;;;;;;;2.77;1.67;;;;;;;;;;5048824;28;20267;-72
2023/07/28 04:20:28;;;;;;;3.92;1.50;;;;;;;;;;5044902;28;20406;-73
2023/07/28 04:22:54;;;;;;;3.00;1.80;;;;;;;;;;5049746;28;20044;-72
2023/07/28 04:25:19;;;;;;;12.43;2.10;;;;;;;;;;5050063;28;20116;-73
2023/07/28 04:27:44;;;;;;;4.40;1.70;;;;;;;;;;5047442;28;20021;-72
2023/07/28 04:30:09;;;;;;;2.50;1.67;;;;;;;;;;5049372;28;20109;-72
2023/07/28 04:32:35;;;;;;;5.32;1.95;;;;;;;;;;5048006;28;20021;-72
2023/07/28 04:35:00;;;;;;;5.67;1.70;;;;;;;;;;5044527;28;20370;-73
2023/07/28 04:37:25;;;;;;;5.53;2.30;;;;;;;;;;5047090;28;20310;-73
2023/07/28 04:39:50;;;;;;;4.97;1.50;;;;;;;;;;5047921;28;20267;-72
2023/07/28 04:42:15;;;;;;;2.63;1.73;;;;;;;;;;5049058;28;20264;-73
2023/07/28 04:44:40;;;;;;;3.80;1.70;;;;;;;;;;5046535;28;20323;-73
2023/07/28 04:47:06;;;;;;;5.13;1.90;;;;;;;;;;5048581;28;20523;-73
2023/07/28 04:49:31;;;;;;;2.60;1.60;;;;;;;;;;5048260;28;20043;-73
2023/07/28 04:51:56;;;;;;;5.50;2.07;;;;;;;;;;5048663;28;20032;-73
2023/07/28 04:54:21;;;;;;;7.65;2.20;;;;;;;;;;5049826;28;20314;-72
2023/07/28 04:56:49;;;;;;;13.80;2.60;;;;;;;;;;5047594;28;20036;-72
2023/07/28 04:59:14;;;;;;;4.47;1.95;;;;;;;;;;5043938;28;20017;-72
2023/07/28 05:01:40;;;;;;;4.77;1.90;;;;;;;;;;5047061;28;20036;-72
2023/07/28 05:04:05;;;;;;;4.30;2.00;;;;;;;;;;5049439;28;20443;-72
2023/07/28 05:06:30;;;;;;;4.37;1.60;;;;;;;;;;5045792;28;20025;-73
2023/07/28 05:08:55;;;;;;;7.37;1.80;;;;;;;;;;5044593;28;20355;-72
2023/07/28 05:11:20;;;;;;;6.00;1.80;;;;;;;;;;5048479;28;20283;-73
2023/07/28 05:13:45;;;;;;;2.90;1.60;;;;;;;;;;5049818;28;20086;-72
2023/07/28 05:16:11;;;;;;;3.93;1.40;;;;;;;;;;5044826;28;20025;-72
2023/07/28 05:18:36;;;;;;;2.73;1.43;;;;;;;;;;5040181;28;20036;-72
2023/07/28 05:21:02;;;;;;;7.93;1.70;;;;;;;;;;5042537;28;20298;-72
2023/07/28 05:23:27;;;;;;;6.50;1.83;;;;;;;;;;5048983;28;20058;-72
2023/07/28 05:25:52;;;;;;;11.13;1.80;;;;;;;;;;5048094;28;20660;-72
2023/07/28 05:28:17;;;;;;;4.67;1.90;;;;;;;;;;5048486;28;20413;-73
2023/07/28 05:30:42;;;;;;;3.23;1.57;;;;;;;;;;5045033;28;20021;-72
2023/07/28 05:33:07;;;;;;;3.00;1.90;;;;;;;;;;5041468;28;20105;-72
2023/07/28 05:35:33;;;;;;;5.10;1.77;;;;;;;;;;5050617;28;20278;-72
2023/07/28 05:37:58;;;;;;;7.82;1.95;;;;;;;;;;5046645;28;20025;-72
2023/07/28 05:40:23;;;;;;;15.37;4.00;;;;;;;;;;5050642;28;20052;-73
2023/07/28 05:42:48;;;;;;;4.47;1.80;;;;;;;;;;5049350;28;20397;-72
2023/07/28 05:45:14;;;;;;;4.17;2.40;;;;;;;;;;5047675;28;20024;-73
2023/07/28 05:47:39;;;;;;;5.05;1.80;;;;;;;;;;5043237;28;20498;-72
2023/07/28 05:50:05;;;;;;;2.40;1.60;;;;;;;;;;5049894;28;20017;-74
2023/07/28 05:52:30;;;;;;;3.45;1.75;;;;;;;;;;5048125;28;20351;-73
2023/07/28 05:54:55;;;;;;;3.53;1.80;;;;;;;;;;5052221;28;20116;-72
2023/07/28 05:57:21;;;;;;;6.53;2.17;;;;;;;;;;5032942;28;20025;-73
2023/07/28 05:59:46;;;;;;;3.92;1.98;;;;;;;;;;5046089;28;20087;-73
2023/07/28 06:02:11;;;;;;;6.45;1.95;;;;;;;;;;5046502;28;20096;-72
2023/07/28 06:04:37;;;;;;;3.92;2.10;;;;;;;;;;5048074;28;20017;-74
2023/07/28 06:07:02;;;;;;;3.40;1.60;;;;;;;;;;5044113;28;20898;-72
2023/07/28 06:09:28;;;;;;;5.60;1.95;;;;;;;;;;5049065;28;20321;-73
2023/07/28 06:11:53;;;;;;;6.47;1.88;;;;;;;;;;5048795;28;20402;-72
2023/07/28 06:14:18;;;;;;;6.03;1.73;;;;;;;;;;5049084;28;20033;-72
2023/07/28 06:16:44;;;;;;;4.32;1.80;;;;;;;;;;5047303;28;20059;-73
2023/07/28 06:19:09;;;;;;;4.82;1.77;;;;;;;;;;5048556;28;20071;-72
2023/07/28 06:21:34;;;;;;;6.65;2.13;;;;;;;;;;5046837;28;20025;-73
2023/07/28 06:23:59;;;;;;;3.37;1.70;;;;;;;;;;5046773;28;20425;-73
2023/07/28 06:26:25;;;;;;;6.82;1.88;;;;;;;;;;5043357;28;20267;-73
2023/07/28 06:28:50;;;;;;;4.27;1.80;;;;;;;;;;5046846;28;20522;-73
2023/07/28 06:31:15;;;;;;;7.70;2.15;;;;;;;;;;5047145;28;20263;-73
2023/07/28 06:33:40;;;;;;;5.93;2.40;;;;;;;;;;5049722;28;20035;-72
2023/07/28 06:36:06;;;;;;;3.90;2.33;;;;;;;;;;5050126;28;20749;-73
2023/07/28 06:38:32;;;;;;;6.35;2.50;;;;;;;;;;5046542;28;20013;-72
2023/07/28 06:40:57;;;;;;;3.83;2.38;;;;;;;;;;5046436;28;20017;-73
2023/07/28 06:43:22;;;;;;;3.73;2.20;;;;;;;;;;5049877;28;20032;-72
2023/07/28 06:45:51;;;;;;;3.77;2.10;;;;;;;;;;5051359;28;20470;-73
2023/07/28 06:48:16;;;;;;;4.45;2.63;;;;;;;;;;5049364;28;20267;-72
2023/07/28 06:50:41;;;;;;;6.00;2.93;;;;;;;;;;5045696;28;20124;-72
2023/07/28 06:53:06;;;;;;;8.38;2.80;;;;;;;;;;5051480;28;20766;-72
2023/07/28 06:55:31;;;;;;;5.20;3.03;;;;;;;;;;5050830;28;20468;-72
2023/07/28 06:57:57;;;;;;;8.90;2.30;;;;;;;;;;5045346;28;20050;-72
2023/07/28 07:00:23;;;;;;;6.30;3.43;;;;;;;;;;5048382;28;20267;-72
2023/07/28 07:02:48;;;;;;;5.22;3.20;;;;;;;;;;5051102;28;20338;-72
2023/07/28 07:05:13;;;;;;;8.47;3.00;;;;;;;;;;5050242;28;20025;-72
2023/07/28 07:07:39;;;;;;;8.60;3.10;;;;;;;;;;5047617;28;20273;-75
2023/07/28 07:10:04;;;;;;;8.35;3.13;;;;;;;;;;5050001;28;20414;-72
2023/07/28 07:12:29;;;;;;;4.82;3.15;;;;;;;;;;5050744;28;20033;-73
2023/07/28 07:14:54;;;;;;;5.67;2.97;;;;;;;;;;5049476;28;20027;-73
2023/07/28 07:17:19;;;;;;;6.60;3.30;;;;;;;;;;5049119;28;20099;-73
2023/07/28 07:19:45;;;;;;;8.13;3.20;;;;;;;;;;5044574;28;20115;-73
2023/07/28 07:22:10;;;;;;;6.83;3.27;;;;;;;;;;5048184;28;20283;-72
2023/07/28 07:24:35;;;;;;;8.73;3.40;;;;;;;;;;5048549;28;20283;-73
2023/07/28 07:27:00;;;;;;;8.63;3.40;;;;;;;;;;5049749;28;20035;-73
2023/07/28 07:29:26;;;;;;;8.53;3.50;;;;;;;;;;5045821;28;20104;-73
2023/07/28 07:31:54;;;;;;;11.63;3.83;;;;;;;;;;5047658;28;20271;-73
2023/07/28 07:34:20;;;;;;;9.57;3.95;;;;;;;;;;5049599;28;20021;-72
2023/07/28 07:36:45;;;;;;;6.80;3.80;;;;;;;;;;5032430;28;20492;-73
2023/07/28 07:39:10;;;;;;;13.35;5.60;;;;;;;;;;5050589;28;20083;-74
2023/07/28 07:41:35;;;;;;;15.20;4.30;;;;;;;;;;5047455;28;20039;-72
2023/07/28 07:44:01;;;;;;;10.50;5.03;;;;;;;;;;5043539;28;20068;-73
2023/07/28 07:46:26;;;;;;;8.63;5.30;;;;;;;;;;5046736;28;20024;-72
2023/07/28 07:48:51;;;;;;;11.43;5.20;;;;;;;;;;5049873;28;20092;-73
2023/07/28 07:51:16;;;;;;;10.13;4.50;;;;;;;;;;5047271;28;20663;-74
2023/07/28 07:53:42;;;;;;;8.90;5.07;;;;;;;;;;5046597;28;20028;-72
2023/07/28 07:56:07;;;;;;;11.10;5.07;;;;;;;;;;5048726;28;20050;-74
2023/07/28 07:58:33;;;;;;;8.45;5.22;;;;;;;;;;5049866;28;20036;-73
2023/07/28 08:00:58;;;;;;;13.88;5.72;;;;;;;;;;5045850;28;20032;-73
2023/07/28 08:03:24;;;;;;;8.00;4.32;;;;;;;;;;5045694;28;20033;-73
2023/07/28 08:05:50;;;;;;;16.67;6.38;;;;;;;;;;5049817;28;20049;-72
2023/07/28 08:08:16;;;;;;;8.07;4.22;;;;;;;;;;5049218;28;20028;-72
2023/07/28 08:10:42;;;;;;;9.77;5.05;;;;;;;;;;5048509;28;20454;-72
2023/07/28 08:13:07;;;;;;;6.88;3.90;;;;;;;;;;5048292;28;20060;-72
2023/07/28 08:15:32;;;;;;;5.93;3.50;;;;;;;;;;5047356;28;20025;-75
2023/07/28 08:17:58;;;;;;;8.77;4.53;;;;;;;;;;5049042;28;20474;-72
2023/07/28 08:20:23;;;;;;;7.80;3.70;;;;;;;;;;5048827;28;20064;-73
2023/07/28 08:22:48;;;;;;;10.40;5.23;;;;;;;;;;5050581;28;20029;-72
2023/07/28 08:25:13;;;;;;;15.47;7.40;;;;;;;;;;5049091;28;20029;-72
2023/07/28 08:27:38;;;;;;;22.15;10.18;;;;;;;;;;5048071;28;20371;-72
2023/07/28 08:30:05;;;;;;;27.77;14.33;;;;;;;;;;5047991;28;20060;-72
2023/07/28 08:32:30;;;;;;;22.83;12.80;;;;;;;;;;5048921;28;20263;-72
2023/07/28 08:34:55;;;;;;;16.47;8.80;;;;;;;;;;5049038;28;20028;-73
2023/07/28 08:37:20;;;;;;;19.83;7.75;;;;;;;;;;5048245;28;20510;-72
2023/07/28 08:39:45;;;;;;;6.87;3.90;;;;;;;;;;5050188;28;20531;-73
2023/07/28 08:42:11;;;;;;;10.85;4.80;;;;;;;;;;5045539;28;20055;-72
2023/07/28 08:44:36;;;;;;;7.70;5.03;;;;;;;;;;5043957;28;20024;-72
2023/07/28 08:47:04;;;;;;;15.17;7.50;;;;;;;;;;5047336;28;20359;-74
2023/07/28 08:49:32;;;;;;;11.18;7.15;;;;;;;;;;5051785;28;20264;-72
2023/07/28 08:51:58;;;;;;;11.52;5.93;;;;;;;;;;5052895;28;20144;-72
2023/07/28 08:54:23;;;;;;;10.95;5.50;;;;;;;;;;5049663;28;20528;-72
2023/07/28 08:56:48;;;;;;;22.25;6.63;;;;;;;;;;5048694;28;20066;-72
2023/07/28 08:59:20;;;;;;;9.30;4.90;;;;;;;;;;5051453;28;20062;-72
2023/07/28 09:01:46;;;;;;;9.88;4.15;;;;;;;;;;5052273;28;20304;-72
2023/07/28 09:04:11;;;;;;;8.15;4.38;;;;;;;;;;5052731;28;20479;-72
2023/07/28 09:06:37;;;;;;;6.70;4.55;;;;;;;;;;5047422;28;20009;-72
2023/07/28 09:09:06;;;;;;;7.70;4.18;;;;;;;;;;5050576;28;20017;-72
2023/07/28 09:11:32;;;;;;;8.82;3.95;;;;;;;;;;5049127;28;20017;-72
2023/07/28 09:14:00;;;;;;;6.80;4.15;;;;;;;;;;5050313;28;20067;-72
2023/07/28 09:16:25;;;;;;;4.95;3.33;;;;;;;;;;5049379;28;20009;-72
2023/07/28 09:18:51;;;;;;;4.38;3.15;;;;;;;;;;5052380;28;20024;-72
2023/07/28 09:21:17;;;;;;;9.48;3.40;;;;;;;;;;5051699;28;20028;-72
2023/07/28 09:23:42;;;;;;;6.63;3.53;;;;;;;;;;5053236;28;20009;-72
2023/07/28 09:26:08;;;;;;;5.67;3.40;;;;;;;;;;5032651;28;20478;-72
2023/07/28 09:28:37;;;;;;;5.40;3.60;;;;;;;;;;5052532;28;20255;-72
2023/07/28 09:31:04;;;;;;;4.77;2.53;;;;;;;;;;5050855;28;20013;-72
2023/07/28 09:33:32;;;;;;;5.72;2.58;;;;;;;;;;5052746;28;20420;-72
2023/07/28 09:36:06;;;;;;;3.97;2.25;;;;;;;;;;5051386;28;20025;-73
2023/07/28 09:38:32;;;;;;;10.80;2.72;;;;;;;;;;5050894;28;20095;-72
2023/07/28 09:40:58;;;;;;;3.75;1.92;;;;;;;;;;5051246;28;20056;-72
2023/07/28 09:43:23;;;;;;;2.90;1.80;;;;;;;;;;5034232;28;20039;-72
2023/07/28 09:45:49;;;;;;;4.30;1.63;;;;;;;;;;5051627;28;20025;-72
2023/07/28 09:48:15;;;;;;;1.67;1.27;;;;;;;;;;5050652;28;20267;-72
2023/07/28 09:50:40;;;;;;;2.28;1.42;;;;;;;;;;5048255;28;20470;-72
2023/07/28 09:53:08;;;;;;;5.63;1.70;;;;;;;;;;5049053;28;20024;-72
2023/07/28 09:55:34;;;;;;;2.63;1.20;;;;;;;;;;5050468;28;20033;-72
2023/07/28 09:58:03;;;;;;;3.40;1.25;;;;;;;;;;5050019;28;20109;-72
2023/07/28 10:00:29;;;;;;;3.50;1.30;;;;;;;;;;5046055;28;20486;-72
2023/07/28 10:02:54;;;;;;;3.58;1.38;;;;;;;;;;5049393;28;20028;-72
2023/07/28 10:05:20;;;;;;;2.65;1.50;;;;;;;;;;5049784;28;20489;-72
2023/07/28 10:07:46;;;;;;;3.15;1.98;;;;;;;;;;5050960;28;20017;-72
2023/07/28 10:10:12;;;;;;;2.47;1.30;;;;;;;;;;5049591;28;20021;-72
2023/07/28 10:12:47;;;;;;;2.65;1.70;;;;;;;;;;5050461;28;20013;-71
2023/07/28 10:15:16;;;;;;;2.80;1.85;;;;;;;;;;5050657;28;20025;-72
2023/07/28 10:17:47;;;;;;;7.90;2.25;;;;;;;;;;5048698;28;20100;-72
2023/07/28 10:20:32;;;;;;;6.20;2.40;;;;;;;;;;5048119;28;20488;-72
2023/07/28 10:23:14;;;;;;;2.83;2.17;;;;;;;;;;5043509;28;20036;-72
2023/07/28 10:25:40;;;;;;;4.95;2.58;;;;;;;;;;5042186;28;20025;-72
2023/07/28 10:28:06;;;;;;;5.28;2.40;;;;;;;;;;5030671;28;20051;-72
2023/07/28 10:30:36;;;;;;;3.50;2.38;;;;;;;;;;5045563;28;20041;-72
2023/07/28 10:33:01;;;;;;;;;;;;;;;;;;5050075;28;20052;-71
2023/07/28 10:35:31;;;;;;;6.93;2.42;;;;;;;;;;5048970;28;19947;-71
2023/07/28 10:37:57;;;;;;;3.88;2.38;;;;;;;;;;5048862;28;20024;-72
2023/07/28 10:40:23;;;;;;;3.58;2.42;;;;;;;;;;5046946;28;20028;-71
2023/07/28 10:42:49;;;;;;;9.05;2.60;;;;;;;;;;5051442;28;20017;-71
2023/07/28 10:45:15;;;;;;;7.07;3.00;;;;;;;;;;5048124;28;20025;-71
2023/07/28 10:47:40;;;;;;;13.95;2.67;;;;;;;;;;5050175;28;20013;-72
2023/07/28 10:50:08;;;;;;;3.55;2.33;;;;;;;;;;5051493;28;20021;-72
2023/07/28 10:52:34;;;;;;;3.08;2.00;;;;;;;;;;5047028;28;20429;-72
2023/07/28 10:54:59;;;;;;;5.10;1.60;;;;;;;;;;5045212;28;20037;-71
2023/07/28 10:57:26;;;;;;;3.37;1.30;;;;;;;;;;5047418;28;20028;-72
2023/07/28 10:59:51;;;;;;;2.63;1.35;;;;;;;;;;5048478;28;20482;-71
2023/07/28 11:02:16;;;;;;;2.17;1.37;;;;;;;;;;5049604;28;20044;-71
2023/07/28 11:04:45;;;;;;;2.65;1.60;;;;;;;;;;5048395;28;20070;-72
2023/07/28 11:07:11;;;;;;;3.47;1.67;;;;;;;;;;5044011;28;20012;-72
2023/07/28 11:09:36;;;;;;;2.67;1.20;;;;;;;;;;5046115;28;20024;-70
2023/07/28 11:12:01;;;;;;;6.40;1.63;;;;;;;;;;5045721;28;20264;-71
2023/07/28 11:14:26;;;;;;;1.67;1.03;;;;;;;;;;5045559;28;20709;-71
2023/07/28 11:16:52;;;;;;;2.57;1.10;;;;;;;;;;5047139;28;20691;-71
2023/07/28 11:19:24;;;;;;;1.85;1.17;;;;;;;;;;5043865;28;20278;-71
2023/07/28 11:21:51;;;;;;;2.47;1.17;;;;;;;;;;5044945;28;20038;-71
2023/07/28 11:24:18;;;;;;;1.38;1.08;;;;;;;;;;5043538;28;20023;-71
2023/07/28 11:26:45;;;;;;;1.35;0.90;;;;;;;;;;5029462;28;20025;-71
2023/07/28 11:29:11;;;;;;;1.52;0.90;;;;;;;;;;5046764;28;20025;-71
2023/07/28 11:31:36;;;;;;;2.47;0.73;;;;;;;;;;5039316;28;20552;-71
2023/07/28 11:34:02;;;;;;;3.77;1.07;;;;;;;;;;5047986;28;20029;-70
2023/07/28 11:36:27;;;;;;;3.33;0.98;;;;;;;;;;5044085;28;20286;-71
2023/07/28 11:38:54;;;;;;;1.63;1.00;;;;;;;;;;5045360;28;20049;-71
2023/07/28 11:41:19;;;;;;;1.30;1.00;;;;;;;;;;5045403;28;20025;-71
2023/07/28 11:43:48;;;;;;;2.13;0.90;;;;;;;;;;5044953;28;20031;-71
2023/07/28 11:46:31;;;;;;;3.20;1.45;;;;;;;;;;5044436;28;20029;-71
2023/07/28 11:49:06;;;;;;;2.13;0.90;;;;;;;;;;5046523;28;20067;-71
2023/07/28 11:51:31;;;;;;;4.10;1.35;;;;;;;;;;5049381;28;20020;-71
2023/07/28 11:53:56;;;;;;;4.53;1.40;;;;;;;;;;5047683;28;20021;-71
2023/07/28 11:56:22;;;;;;;3.20;1.20;;;;;;;;;;5048722;28;20315;-71
2023/07/28 11:58:50;;;;;;;3.57;1.00;;;;;;;;;;5048935;28;20498;-71
2023/07/28 12:01:15;;;;;;;1.80;1.08;;;;;;;;;;5047375;28;20029;-71
2023/07/28 12:03:41;;;;;;;8.30;1.27;;;;;;;;;;5049665;28;20044;-71
2023/07/28 12:06:09;;;;;;;5.47;1.10;;;;;;;;;;5047938;28;20433;-71
2023/07/28 12:08:38;;;;;;;2.53;1.10;;;;;;;;;;5047195;28;20516;-71
2023/07/28 12:11:03;;;;;;;5.97;1.00;;;;;;;;;;5048420;28;20392;-71
2023/07/28 12:13:28;;;;;;;1.63;0.70;;;;;;;;;;5047626;28;20021;-71
2023/07/28 12:15:54;;;;;;;1.17;0.73;;;;;;;;;;5048811;28;20029;-72
2023/07/28 12:18:19;;;;;;;1.55;0.75;;;;;;;;;;5052136;28;20078;-71
2023/07/28 12:20:46;;;;;;;2.70;0.68;;;;;;;;;;5052321;28;20100;-71
2023/07/28 12:23:12;;;;;;;1.58;0.75;;;;;;;;;;5049791;28;20075;-71
2023/07/28 12:25:37;;;;;;;2.75;0.98;;;;;;;;;;5051773;28;20028;-71
2023/07/28 12:28:03;;;;;;;1.25;0.70;;;;;;;;;;5053959;28;20075;-71
2023/07/28 12:30:28;;;;;;;3.22;0.80;;;;;;;;;;5052099;28;20009;-71
2023/07/28 12:32:53;;;;;;;0.40;0.35;;;;;;;;;;5050486;28;20470;-71
2023/07/28 12:35:23;;;;;;;0.57;0.40;;;;;;;;;;5052942;28;20025;-71
2023/07/28 12:37:48;;;;;;;1.10;0.60;;;;;;;;;;5048918;28;20021;-72
2023/07/28 12:40:13;;;;;;;0.90;0.70;;;;;;;;;;5054288;28;20048;-72
2023/07/28 12:42:38;;;;;;;2.15;1.13;;;;;;;;;;5053084;28;20055;-72
2023/07/28 12:45:06;;;;;;;1.53;1.20;;;;;;;;;;5052893;28;20032;-72
2023/07/28 12:47:31;;;;;;;2.40;1.30;;;;;;;;;;5050687;28;20033;-72
2023/07/28 12:49:56;;;;;;;1.73;1.00;;;;;;;;;;5050599;28;20025;-72
2023/07/28 12:52:21;;;;;;;1.57;1.10;;;;;;;;;;5049584;28;20036;-72
2023/07/28 12:54:47;;;;;;;1.00;0.80;;;;;;;;;;5051166;28;20113;-72
2023/07/28 12:57:12;;;;;;;5.45;0.85;;;;;;;;;;5052053;28;20033;-72
2023/07/28 12:59:38;;;;;;;2.70;0.80;;;;;;;;;;5051491;28;20044;-72
2023/07/28 13:02:03;;;;;;;1.05;0.60;;;;;;;;;;5052316;28;20024;-72
2023/07/28 13:04:28;;;;;;;3.83;0.88;;;;;;;;;;5050910;28;20025;-72
2023/07/28 13:06:53;;;;;;;1.60;0.83;;;;;;;;;;5051694;28;20036;-72
2023/07/28 13:09:19;;;;;;;2.17;0.83;;;;;;;;;;5051300;28;20267;-71
2023/07/28 13:11:44;;;;;;;5.25;1.13;;;;;;;;;;5050840;28;20275;-71
2023/07/28 13:14:09;;;;;;;1.97;1.00;;;;;;;;;;5051255;28;20029;-71
2023/07/28 13:16:36;;;;;;;6.20;0.90;;;;;;;;;;5051117;28;20021;-71
2023/07/28 13:19:01;;;;;;;1.65;0.80;;;;;;;;;;5049414;28;20044;-71
2023/07/28 13:21:26;;;;;;;1.67;0.73;;;;;;;;;;5051095;28;20021;-71
2023/07/28 13:23:51;;;;;;;1.23;0.60;;;;;;;;;;5048922;28;20017;-71
2023/07/28 13:26:17;;;;;;;1.50;0.60;;;;;;;;;;5049992;28;20056;-71
2023/07/28 13:28:46;;;;;;;1.77;0.70;;;;;;;;;;5050379;28;20103;-71
2023/07/28 13:31:12;;;;;;;0.75;0.68;;;;;;;;;;5051996;28;20469;-71
2023/07/28 13:33:37;;;;;;;0.85;0.52;;;;;;;;;;5048772;28;20029;-71
2023/07/28 13:36:03;;;;;;;0.70;0.60;;;;;;;;;;5049552;28;20025;-71
2023/07/28 13:38:29;;;;;;;2.80;0.50;;;;;;;;;;5049707;28;20025;-71
2023/07/28 13:40:54;;;;;;;1.08;0.70;;;;;;;;;;5052884;28;20048;-71
2023/07/28 13:43:19;;;;;;;1.98;0.50;;;;;;;;;;5050877;28;20031;-71
2023/07/28 13:45:45;;;;;;;0.70;0.50;;;;;;;;;;5049901;28;20029;-71
2023/07/28 13:48:10;;;;;;;1.57;1.03;;;;;;;;;;5050088;28;20305;-71
2023/07/28 13:50:35;;;;;;;0.70;0.50;;;;;;;;;;5053160;28;20756;-71
2023/07/28 13:53:00;;;;;;;3.50;0.60;;;;;;;;;;5048746;28;20020;-71
2023/07/28 13:55:25;;;;;;;0.50;0.40;;;;;;;;;;5045387;28;20029;-71
2023/07/28 13:57:51;;;;;;;1.53;0.67;;;;;;;;;;5047625;28;20082;-71
2023/07/28 14:00:16;;;;;;;2.55;0.77;;;;;;;;;;5047024;28;20271;-71
2023/07/28 14:02:42;;;;;;;0.70;0.52;;;;;;;;;;5048575;28;20675;-71
2023/07/28 14:05:07;;;;;;;3.35;1.00;;;;;;;;;;5051250;28;20013;-71
2023/07/28 14:07:33;;;;;;;3.17;0.85;;;;;;;;;;5045983;28;20033;-71
2023/07/28 14:09:59;;;;;;;2.22;0.75;;;;;;;;;;5048532;28;20017;-71
2023/07/28 14:12:24;;;;;;;1.98;0.85;;;;;;;;;;5048495;28;20621;-71
2023/07/28 14:14:52;;;;;;;1.20;0.60;;;;;;;;;;5045690;28;20752;-71
2023/07/28 14:17:17;;;;;;;1.33;0.70;;;;;;;;;;5051326;28;20298;-71
2023/07/28 14:19:42;;;;;;;1.97;0.60;;;;;;;;;;5052512;28;20029;-72
2023/07/28 14:22:08;;;;;;;1.25;0.60;;;;;;;;;;5050927;28;20284;-72
2023/07/28 14:24:33;;;;;;;3.33;0.57;;;;;;;;;;5044520;28;20025;-71
2023/07/28 14:26:58;;;;;;;1.43;0.60;;;;;;;;;;5042824;28;20735;-71
2023/07/28 14:29:23;;;;;;;3.07;0.60;;;;;;;;;;5050303;28;20275;-71
2023/07/28 14:31:49;;;;;;;0.63;0.47;;;;;;;;;;5049042;28;20286;-71
2023/07/28 14:34:14;;;;;;;3.63;0.70;;;;;;;;;;5050818;28;20409;-71